createdAt,value
2023-03-17T00:01:44.840Z,24.33
2023-03-17T00:04:12.551Z,22.02
2023-03-17T00:06:40.679Z,22.70
2023-03-17T00:09:18.396Z,23.33
2023-03-17T00:11:46.198Z,25.60
2023-03-17T00:14:14.190Z,26.77
2023-03-17T00:16:43.139Z,28.17
2023-03-17T00:19:42.371Z,27.55
2023-03-17T00:22:17.776Z,27.58
2023-03-17T00:24:44.705Z,26.92
2023-03-17T00:27:13.264Z,28.65
2023-03-17T00:29:40.534Z,31.42
2023-03-17T00:32:17.033Z,32.63
2023-03-17T00:34:44.771Z,32.63
2023-03-17T00:37:12.831Z,34.22
2023-03-17T00:39:40.041Z,31.30
2023-03-17T00:42:07.074Z,33.92
2023-03-17T00:44:34.579Z,34.83
2023-03-17T00:47:01.903Z,31.52
2023-03-17T00:49:29.052Z,45.00
2023-03-17T00:51:55.646Z,45.50
2023-03-17T00:54:22.401Z,40.20
2023-03-17T00:56:52.672Z,40.90
2023-03-17T00:59:35.370Z,43.75
2023-03-17T01:02:02.113Z,53.50
2023-03-17T01:04:32.195Z,50.15
2023-03-17T01:06:59.308Z,45.05
2023-03-17T01:09:27.619Z,39.60
2023-03-17T01:11:55.521Z,37.78
2023-03-17T01:14:22.556Z,36.75
2023-03-17T01:16:49.325Z,32.75
2023-03-17T01:19:16.736Z,34.30
2023-03-17T01:21:43.302Z,29.77
2023-03-17T01:24:10.734Z,28.33
2023-03-17T01:26:38.256Z,28.17
2023-03-17T01:29:06.279Z,27.15
2023-03-17T01:31:32.935Z,26.83
2023-03-17T01:33:59.960Z,32.13
2023-03-17T01:36:26.508Z,34.10
2023-03-17T01:38:53.805Z,36.53
2023-03-17T01:41:20.737Z,36.97
2023-03-17T01:43:47.633Z,32.10
2023-03-17T01:46:28.092Z,33.55
2023-03-17T01:49:16.026Z,30.25
2023-03-17T01:52:15.776Z,28.95
2023-03-17T01:54:50.320Z,31.75
2023-03-17T01:57:16.872Z,28.77
2023-03-17T01:59:51.353Z,30.17
2023-03-17T02:02:23.451Z,28.42
2023-03-17T02:04:52.986Z,24.90
2023-03-17T02:07:22.192Z,25.17
2023-03-17T02:09:49.586Z,23.73
2023-03-17T02:12:22.244Z,25.80
2023-03-17T02:14:50.026Z,24.55
2023-03-17T02:17:16.574Z,28.25
2023-03-17T02:19:43.678Z,29.23
2023-03-17T02:22:11.472Z,35.35
2023-03-17T02:24:45.927Z,34.72
2023-03-17T02:27:31.576Z,40.53
2023-03-17T02:29:59.787Z,38.53
2023-03-17T02:32:26.942Z,48.42
2023-03-17T02:34:55.281Z,50.10
2023-03-17T02:37:21.950Z,49.03
2023-03-17T02:39:48.551Z,47.45
2023-03-17T02:42:15.292Z,46.20
2023-03-17T02:44:42.078Z,45.58
2023-03-17T02:47:08.761Z,52.33
2023-03-17T02:49:37.320Z,49.50
2023-03-17T02:52:05.157Z,50.10
2023-03-17T02:54:32.106Z,42.47
2023-03-17T02:56:59.841Z,30.75
2023-03-17T02:59:27.007Z,28.08
2023-03-17T03:01:54.649Z,27.75
2023-03-17T03:04:21.317Z,26.13
2023-03-17T03:06:48.315Z,27.80
2023-03-17T03:09:17.679Z,24.80
2023-03-17T03:11:45.109Z,29.15
2023-03-17T03:14:11.942Z,28.15
2023-03-17T03:16:39.801Z,34.92
2023-03-17T03:19:07.826Z,39.80
2023-03-17T03:21:35.112Z,45.67
2023-03-17T03:24:01.667Z,43.25
2023-03-17T03:26:28.421Z,42.58
2023-03-17T03:28:57.278Z,41.33
2023-03-17T03:31:24.697Z,39.95
2023-03-17T03:33:51.965Z,53.25
2023-03-17T03:36:18.898Z,52.67
2023-03-17T03:38:45.678Z,50.75
2023-03-17T03:41:13.063Z,51.63
2023-03-17T03:43:39.831Z,47.20
2023-03-17T03:46:06.908Z,45.60
2023-03-17T03:48:33.592Z,51.33
2023-03-17T03:51:02.149Z,54.90
2023-03-17T03:53:29.279Z,55.13
2023-03-17T03:55:56.474Z,47.40
2023-03-17T03:58:23.319Z,44.53
2023-03-17T04:00:50.064Z,39.00
2023-03-17T04:03:17.025Z,37.55
2023-03-17T04:05:43.726Z,33.63
2023-03-17T04:08:11.287Z,31.48
2023-03-17T04:10:38.035Z,33.50
2023-03-17T04:13:04.960Z,34.40
2023-03-17T04:15:31.845Z,33.65
2023-03-17T04:17:58.355Z,33.15
2023-03-17T04:20:24.968Z,31.15
2023-03-17T04:22:51.813Z,33.40
2023-03-17T04:25:18.608Z,35.25
2023-03-17T04:27:45.199Z,40.15
2023-03-17T04:30:13.901Z,35.00
2023-03-17T04:32:41.586Z,37.55
2023-03-17T04:35:12.160Z,54.05
2023-03-17T04:37:38.996Z,57.70
2023-03-17T04:40:12.148Z,41.30
2023-03-17T04:42:39.190Z,32.70
2023-03-17T04:45:06.881Z,34.78
2023-03-17T04:47:34.009Z,32.10
2023-03-17T04:50:01.400Z,32.95
2023-03-17T04:52:28.422Z,30.80
2023-03-17T04:54:55.037Z,33.17
2023-03-17T04:57:22.306Z,31.20
2023-03-17T04:59:48.859Z,30.85
2023-03-17T05:02:15.490Z,32.05
2023-03-17T05:04:42.794Z,32.50
2023-03-17T05:07:09.430Z,33.20
2023-03-17T05:09:36.055Z,32.65
2023-03-17T05:12:02.753Z,31.83
2023-03-17T05:14:29.520Z,37.13
2023-03-17T05:16:56.230Z,36.83
2023-03-17T05:19:22.994Z,37.50
2023-03-17T05:21:49.624Z,35.33
2023-03-17T05:24:16.154Z,39.13
2023-03-17T05:26:42.823Z,36.92
2023-03-17T05:29:10.039Z,39.65
2023-03-17T05:31:37.402Z,38.25
2023-03-17T05:34:04.242Z,34.95
2023-03-17T05:36:32.024Z,35.75
2023-03-17T05:38:58.568Z,36.97
2023-03-17T05:41:25.679Z,38.65
2023-03-17T05:43:52.441Z,36.67
2023-03-17T05:46:20.418Z,39.92
2023-03-17T05:48:47.514Z,38.03
2023-03-17T05:51:14.415Z,40.85
2023-03-17T05:53:41.684Z,38.63
2023-03-17T05:56:09.264Z,40.13
2023-03-17T05:58:36.567Z,36.92
2023-03-17T06:01:03.181Z,40.63
2023-03-17T06:03:29.852Z,38.10
2023-03-17T06:05:58.926Z,40.78
2023-03-17T06:08:25.738Z,35.40
2023-03-17T06:10:52.606Z,40.00
2023-03-17T06:13:19.138Z,38.92
2023-03-17T06:15:49.505Z,33.80
2023-03-17T06:18:16.140Z,34.33
2023-03-17T06:20:42.872Z,37.65
2023-03-17T06:23:09.520Z,33.50
2023-03-17T06:25:37.028Z,33.63
2023-03-17T06:28:05.440Z,34.95
2023-03-17T06:30:33.753Z,36.70
2023-03-17T06:33:01.690Z,32.95
2023-03-17T06:35:29.441Z,32.15
2023-03-17T06:37:56.320Z,32.30
2023-03-17T06:40:22.936Z,34.35
2023-03-17T06:42:49.605Z,30.58
2023-03-17T06:45:16.323Z,35.30
2023-03-17T06:47:43.528Z,33.35
2023-03-17T06:50:13.457Z,32.33
2023-03-17T06:52:40.840Z,33.03
2023-03-17T06:55:08.546Z,31.73
2023-03-17T06:57:35.750Z,30.50
2023-03-17T07:00:03.428Z,29.92
2023-03-17T07:02:30.081Z,30.60
2023-03-17T07:04:58.168Z,30.83
2023-03-17T07:07:25.126Z,32.13
2023-03-17T07:09:52.768Z,30.48
2023-03-17T07:12:20.103Z,27.40
2023-03-17T07:14:46.742Z,30.17
2023-03-17T07:17:14.911Z,31.17
2023-03-17T07:19:41.696Z,29.17
2023-03-17T07:22:11.844Z,29.08
2023-03-17T07:24:39.607Z,29.02
2023-03-17T07:27:06.300Z,28.23
2023-03-17T07:29:33.947Z,28.42
2023-03-17T07:32:01.415Z,25.63
2023-03-17T07:34:28.431Z,28.27
2023-03-17T07:36:55.540Z,27.10
2023-03-17T07:39:22.435Z,24.08
2023-03-17T07:41:57.797Z,22.60
2023-03-17T07:44:25.937Z,25.67
2023-03-17T07:46:52.572Z,19.60
2023-03-17T07:49:30.755Z,21.10
2023-03-17T07:52:08.974Z,20.58
2023-03-17T07:54:37.005Z,19.38
2023-03-17T07:57:05.151Z,21.30
2023-03-17T07:59:32.355Z,20.30
2023-03-17T08:02:01.186Z,21.08
2023-03-17T08:04:28.332Z,20.13
2023-03-17T08:06:55.005Z,22.50
2023-03-17T08:09:24.891Z,20.98
2023-03-17T08:11:51.606Z,21.05
2023-03-17T08:14:18.644Z,20.73
2023-03-17T08:19:10.764Z,21.83
2023-03-17T08:21:39.064Z,20.17
2023-03-17T08:24:06.074Z,19.77
2023-03-17T08:26:32.724Z,20.83
2023-03-17T08:28:59.906Z,21.23
2023-03-17T08:31:26.600Z,18.45
2023-03-17T08:33:54.442Z,19.55
2023-03-17T08:36:21.842Z,19.05
2023-03-17T08:38:48.768Z,20.25
2023-03-17T08:41:18.962Z,18.25
2023-03-17T08:43:45.979Z,20.38
2023-03-17T08:46:24.974Z,17.27
2023-03-17T08:48:54.058Z,16.00
2023-03-17T08:51:24.223Z,14.52
2023-03-17T08:53:52.043Z,16.60
2023-03-17T08:56:19.193Z,15.70
2023-03-17T08:58:47.056Z,13.98
2023-03-17T09:01:17.661Z,14.60
2023-03-17T09:03:45.126Z,14.48
2023-03-17T09:06:12.284Z,15.60
2023-03-17T09:08:44.729Z,14.00
2023-03-17T09:11:14.741Z,12.18
2023-03-17T09:13:41.544Z,13.57
2023-03-17T09:16:09.020Z,15.90
2023-03-17T09:18:36.413Z,14.95
2023-03-17T09:21:03.518Z,10.80
2023-03-17T09:23:30.883Z,9.65
2023-03-17T09:25:57.657Z,10.00
2023-03-17T09:28:24.691Z,9.25
2023-03-17T09:30:51.535Z,8.50
2023-03-17T09:33:18.954Z,8.88
2023-03-17T09:35:45.580Z,9.73
2023-03-17T09:38:12.911Z,9.10
2023-03-17T09:40:51.554Z,9.45
2023-03-17T09:43:39.445Z,8.88
2023-03-17T09:46:30.622Z,8.05
2023-03-17T09:49:09.309Z,5.97
2023-03-17T09:51:36.627Z,5.22
2023-03-17T09:54:31.422Z,6.93
2023-03-17T09:57:06.523Z,5.80
2023-03-17T09:59:42.247Z,6.82
2023-03-17T10:02:28.396Z,6.40
2023-03-17T10:04:56.102Z,8.98
2023-03-17T10:07:33.993Z,9.05
2023-03-17T10:10:03.459Z,7.85
2023-03-17T10:12:36.102Z,7.75
2023-03-17T10:15:18.481Z,7.78
2023-03-17T10:17:46.137Z,9.40
2023-03-17T10:20:27.186Z,8.60
2023-03-17T10:22:59.274Z,6.85
2023-03-17T10:27:59.986Z,9.68
2023-03-17T10:30:27.376Z,8.05
2023-03-17T10:32:58.776Z,8.95
2023-03-17T10:37:47.698Z,7.55
2023-03-17T10:40:25.924Z,7.63
2023-03-17T10:43:07.851Z,7.53
2023-03-17T10:45:40.895Z,5.95
2023-03-17T10:48:09.743Z,11.05
2023-03-17T10:50:38.097Z,13.88
2023-03-17T10:53:08.359Z,11.88
2023-03-17T10:55:37.632Z,9.30
2023-03-17T10:58:14.266Z,5.50
2023-03-17T11:01:00.251Z,6.00
2023-03-17T11:03:35.847Z,7.00
2023-03-17T11:06:05.606Z,5.30
2023-03-17T11:08:35.554Z,5.85
2023-03-17T11:11:10.357Z,5.93
2023-03-17T11:13:37.339Z,6.18
2023-03-17T11:16:15.660Z,7.13
2023-03-17T11:18:42.888Z,4.07
2023-03-17T11:21:14.292Z,6.18
2023-03-17T11:23:55.012Z,5.13
2023-03-17T11:26:32.059Z,4.75
2023-03-17T11:29:27.774Z,5.28
2023-03-17T11:31:57.481Z,5.15
2023-03-17T11:34:52.543Z,5.10
2023-03-17T11:37:50.238Z,4.13
2023-03-17T11:40:46.112Z,4.57
2023-03-17T11:43:21.950Z,4.32
2023-03-17T11:45:54.835Z,5.32
2023-03-17T11:48:47.066Z,5.28
2023-03-17T11:51:27.502Z,4.88
2023-03-17T11:54:07.971Z,5.13
2023-03-17T11:56:46.237Z,4.55
2023-03-17T11:59:38.387Z,6.35
2023-03-17T12:02:07.853Z,4.97
2023-03-17T12:04:51.257Z,4.40
2023-03-17T12:07:17.956Z,5.72
2023-03-17T12:09:50.781Z,4.25
2023-03-17T12:12:28.289Z,5.05
2023-03-17T12:14:57.855Z,6.47
2023-03-17T12:17:34.537Z,5.55
2023-03-17T12:20:19.966Z,5.03
2023-03-17T12:23:11.046Z,5.07
2023-03-17T12:25:45.302Z,5.15
2023-03-17T12:28:23.150Z,5.18
2023-03-17T12:30:55.355Z,4.88
2023-03-17T12:33:29.641Z,29.92
2023-03-17T12:35:58.861Z,4.72
2023-03-17T12:38:38.225Z,4.25
2023-03-17T12:41:31.480Z,4.07
2023-03-17T12:44:07.905Z,4.68
2023-03-17T12:46:52.204Z,4.60
2023-03-17T12:49:52.706Z,4.95
2023-03-17T12:52:48.001Z,4.47
2023-03-17T12:55:17.610Z,4.38
2023-03-17T12:57:46.873Z,4.43
2023-03-17T13:00:29.556Z,5.03
2023-03-17T13:03:23.421Z,4.15
2023-03-17T13:05:55.107Z,5.40
2023-03-17T13:08:28.207Z,4.60
2023-03-17T13:11:14.648Z,6.53
2023-03-17T13:13:44.507Z,6.82
2023-03-17T13:16:39.315Z,7.65
2023-03-17T13:19:20.084Z,6.47
2023-03-17T13:22:03.619Z,5.30
2023-03-17T13:24:46.880Z,5.30
2023-03-17T13:27:34.879Z,6.53
2023-03-17T13:30:37.624Z,6.38
2023-03-17T13:33:10.722Z,5.82
2023-03-17T13:36:04.081Z,5.40
2023-03-17T13:39:04.884Z,5.72
2023-03-17T13:41:52.009Z,4.82
2023-03-17T13:44:25.519Z,5.03
2023-03-17T13:46:53.065Z,6.75
2023-03-17T13:49:19.593Z,6.85
2023-03-17T13:52:01.675Z,6.72
2023-03-17T13:54:28.664Z,6.37
2023-03-17T13:57:00.068Z,5.18
2023-03-17T13:59:55.609Z,8.82
2023-03-17T14:02:25.297Z,8.60
2023-03-17T14:04:55.803Z,5.90
2023-03-17T14:07:27.118Z,5.40
2023-03-17T14:10:00.020Z,6.18
2023-03-17T14:13:02.576Z,8.07
2023-03-17T14:15:29.637Z,9.65
2023-03-17T14:18:08.776Z,11.10
2023-03-17T14:20:36.437Z,7.50
2023-03-17T14:23:04.476Z,7.85
2023-03-17T14:25:35.471Z,6.28
2023-03-17T14:28:09.341Z,5.88
2023-03-17T14:30:39.568Z,7.68
2023-03-17T14:33:13.186Z,7.20
2023-03-17T14:35:43.615Z,6.15
2023-03-17T14:38:26.836Z,5.88
2023-03-17T14:41:15.453Z,8.48
2023-03-17T14:43:44.240Z,6.38
2023-03-17T14:46:18.554Z,5.47
2023-03-17T14:48:48.891Z,5.68
2023-03-17T14:51:25.166Z,6.55
2023-03-17T14:53:54.501Z,5.38
2023-03-17T14:56:24.124Z,6.30
2023-03-17T14:58:52.382Z,5.88
2023-03-17T15:01:36.463Z,4.82
2023-03-17T15:04:24.866Z,6.45
2023-03-17T15:06:54.609Z,7.80
2023-03-17T15:09:34.296Z,5.90
2023-03-17T15:12:24.626Z,5.35
2023-03-17T15:14:54.464Z,5.07
2023-03-17T15:17:26.349Z,6.53
2023-03-17T15:19:58.188Z,5.95
2023-03-17T15:22:44.718Z,5.35
2023-03-17T15:25:17.693Z,6.13
2023-03-17T15:27:45.549Z,5.82
2023-03-17T15:30:16.527Z,5.00
2023-03-17T15:32:45.261Z,5.13
2023-03-17T15:35:13.984Z,4.50
2023-03-17T15:37:41.578Z,8.57
2023-03-17T15:40:10.705Z,4.55
2023-03-17T15:42:39.764Z,4.53
2023-03-17T15:45:07.815Z,8.63
2023-03-17T15:47:39.171Z,5.60
2023-03-17T15:50:16.711Z,4.87
2023-03-17T15:52:44.656Z,4.75
2023-03-17T15:55:22.879Z,4.15
2023-03-17T15:57:55.067Z,4.47
2023-03-17T16:00:24.182Z,6.13
2023-03-17T16:02:56.217Z,4.55
2023-03-17T16:05:29.403Z,6.15
2023-03-17T16:07:58.661Z,6.85
2023-03-17T16:10:32.239Z,4.32
2023-03-17T16:12:59.426Z,11.23
2023-03-17T16:15:29.334Z,5.50
2023-03-17T16:17:59.242Z,5.82
2023-03-17T16:20:31.365Z,8.45
2023-03-17T16:23:04.694Z,6.80
2023-03-17T16:25:32.466Z,8.18
2023-03-17T16:28:01.660Z,8.20
2023-03-17T16:30:31.491Z,7.82
2023-03-17T16:33:02.269Z,8.50
2023-03-17T16:35:29.359Z,8.15
2023-03-17T16:37:56.253Z,6.53
2023-03-17T16:40:29.092Z,8.13
2023-03-17T16:42:55.835Z,8.50
2023-03-17T16:45:34.067Z,13.30
2023-03-17T16:48:04.024Z,9.82
2023-03-17T16:50:33.608Z,9.85
2023-03-17T16:53:00.474Z,11.43
2023-03-17T16:55:30.477Z,11.27
2023-03-17T16:58:00.932Z,10.20
2023-03-17T17:00:29.934Z,13.48
2023-03-17T17:02:58.165Z,12.73
2023-03-17T17:05:28.199Z,16.88
2023-03-17T17:07:56.996Z,9.20
2023-03-17T17:10:25.904Z,9.07
2023-03-17T17:12:53.004Z,10.70
2023-03-17T17:15:21.708Z,11.55
2023-03-17T17:18:01.328Z,10.98
2023-03-17T17:20:31.816Z,8.63
2023-03-17T17:23:00.558Z,9.27
2023-03-17T17:25:28.108Z,11.77
2023-03-17T17:27:56.353Z,10.85
2023-03-17T17:30:28.038Z,11.32
2023-03-17T17:32:59.999Z,8.98
2023-03-17T17:35:32.787Z,9.70
2023-03-17T17:38:01.477Z,8.73
2023-03-17T17:40:32.224Z,9.65
2023-03-17T17:42:59.558Z,10.48
2023-03-17T17:45:26.491Z,10.75
2023-03-17T17:47:53.123Z,12.30
2023-03-17T17:50:26.041Z,13.25
2023-03-17T17:52:52.874Z,14.50
2023-03-17T17:55:22.073Z,18.48
2023-03-17T17:57:52.299Z,12.07
2023-03-17T18:00:19.732Z,13.95
2023-03-17T18:02:46.344Z,10.93
2023-03-17T18:05:13.433Z,14.90
2023-03-17T18:07:40.596Z,12.68
2023-03-17T18:10:07.980Z,15.35
2023-03-17T18:12:37.974Z,14.30
2023-03-17T18:15:05.490Z,15.88
2023-03-17T18:17:32.624Z,17.35
2023-03-17T18:20:00.273Z,73.38
2023-03-17T18:22:27.864Z,61.08
2023-03-17T18:24:56.474Z,24.88
2023-03-17T18:27:23.722Z,34.33
2023-03-17T18:29:51.135Z,24.38
2023-03-17T18:32:17.833Z,19.08
2023-03-17T18:34:47.968Z,36.95
2023-03-17T18:37:17.635Z,16.88
2023-03-17T18:39:48.824Z,31.90
2023-03-17T18:42:19.791Z,39.45
2023-03-17T18:44:46.476Z,30.73
2023-03-17T18:47:15.846Z,18.80
2023-03-17T18:49:44.109Z,15.80
2023-03-17T18:52:13.317Z,17.40
2023-03-17T18:54:40.419Z,16.77
2023-03-17T18:57:08.436Z,16.75
2023-03-17T18:59:34.979Z,15.00
2023-03-17T19:02:02.553Z,14.32
2023-03-17T19:04:30.300Z,15.13
2023-03-17T19:06:57.981Z,13.60
2023-03-17T19:09:24.568Z,16.25
2023-03-17T19:11:51.319Z,17.20
2023-03-17T19:14:17.975Z,14.00
2023-03-17T19:16:45.021Z,13.63
2023-03-17T19:19:11.756Z,14.43
2023-03-17T19:21:38.477Z,13.23
2023-03-17T19:24:05.537Z,14.27
2023-03-17T19:26:34.094Z,16.10
2023-03-17T19:29:03.620Z,16.15
2023-03-17T19:31:30.298Z,15.07
2023-03-17T19:34:01.921Z,18.10
2023-03-17T19:36:36.085Z,16.23
2023-03-17T19:39:07.206Z,19.15
2023-03-17T19:41:37.870Z,17.58
2023-03-17T19:44:10.597Z,18.30
2023-03-17T19:46:38.044Z,20.00
2023-03-17T19:49:04.931Z,21.58
2023-03-17T19:51:33.174Z,19.45
2023-03-17T19:54:00.566Z,18.13
2023-03-17T19:56:27.938Z,20.65
2023-03-17T19:58:55.766Z,16.63
2023-03-17T20:01:23.108Z,19.05
2023-03-17T20:03:52.451Z,16.73
2023-03-17T20:06:19.259Z,17.90
2023-03-17T20:08:46.080Z,16.40
2023-03-17T20:11:13.454Z,16.50
2023-03-17T20:13:42.058Z,23.92
2023-03-17T20:16:09.253Z,17.20
2023-03-17T20:18:39.364Z,16.63
2023-03-17T20:21:15.844Z,17.77
2023-03-17T20:23:45.377Z,13.98
2023-03-17T20:26:20.118Z,17.13
2023-03-17T20:28:52.621Z,15.95
2023-03-17T20:31:19.522Z,17.35
2023-03-17T20:33:46.305Z,17.40
2023-03-17T20:36:18.831Z,29.60
2023-03-17T20:38:45.685Z,16.15
2023-03-17T20:41:15.327Z,14.63
2023-03-17T20:43:45.190Z,17.27
2023-03-17T20:46:23.054Z,15.13
2023-03-17T20:49:01.291Z,20.33
2023-03-17T20:51:30.990Z,28.23
2023-03-17T20:53:58.336Z,125.05
2023-03-17T20:56:26.563Z,88.20
2023-03-17T20:58:53.550Z,127.93
2023-03-17T21:01:21.764Z,71.88
2023-03-17T21:03:49.653Z,84.47
2023-03-17T21:06:23.078Z,51.03
2023-03-17T21:08:55.534Z,29.98
2023-03-17T21:11:26.939Z,50.20
2023-03-17T21:13:56.152Z,38.75
2023-03-17T21:16:25.603Z,27.10
2023-03-17T21:18:52.652Z,18.00
2023-03-17T21:21:23.066Z,31.08
2023-03-17T21:23:56.228Z,18.73
2023-03-17T21:26:26.086Z,17.08
2023-03-17T21:28:52.691Z,24.17
2023-03-17T21:31:21.685Z,18.40
2023-03-17T21:33:50.503Z,18.58
2023-03-17T21:36:18.095Z,20.70
2023-03-17T21:38:46.048Z,22.77
2023-03-17T21:41:29.318Z,18.80
2023-03-17T21:43:56.388Z,19.45
2023-03-17T21:46:23.346Z,18.55
2023-03-17T21:48:50.143Z,16.58
2023-03-17T21:51:16.804Z,16.00
2023-03-17T21:53:43.616Z,16.25
2023-03-17T21:56:12.430Z,15.70
2023-03-17T21:58:40.141Z,15.18
2023-03-17T22:01:07.553Z,13.65
2023-03-17T22:03:36.587Z,13.90
2023-03-17T22:06:05.381Z,13.82
2023-03-17T22:08:33.257Z,14.55
2023-03-17T22:11:01.217Z,11.98
2023-03-17T22:13:30.169Z,26.60
2023-03-17T22:15:59.353Z,18.10
2023-03-17T22:18:25.953Z,15.77
2023-03-17T22:20:56.537Z,16.17
2023-03-17T22:23:25.563Z,14.77
2023-03-17T22:25:52.650Z,15.48
2023-03-17T22:28:19.551Z,15.25
2023-03-17T22:30:46.252Z,13.50
2023-03-17T22:33:14.473Z,14.85
2023-03-17T22:35:41.355Z,14.70
2023-03-17T22:38:13.077Z,15.10
2023-03-17T22:40:39.966Z,13.85
2023-03-17T22:43:07.236Z,13.38
2023-03-17T22:45:37.057Z,15.43
2023-03-17T22:48:04.176Z,13.43
2023-03-17T22:50:31.111Z,13.00
2023-03-17T22:52:57.895Z,11.23
2023-03-17T22:55:24.638Z,13.85
2023-03-17T22:57:51.551Z,12.43
2023-03-17T23:00:18.711Z,14.30
2023-03-17T23:02:46.399Z,11.55
2023-03-17T23:05:13.613Z,13.05
2023-03-17T23:07:50.418Z,12.95
2023-03-17T23:10:22.915Z,14.18
2023-03-17T23:12:50.775Z,13.70
2023-03-17T23:15:18.869Z,12.43
2023-03-17T23:17:46.226Z,14.02
2023-03-17T23:20:13.632Z,14.25
2023-03-17T23:22:41.297Z,15.18
2023-03-17T23:25:08.574Z,14.80
2023-03-17T23:27:35.282Z,16.58
2023-03-17T23:30:01.967Z,16.33
2023-03-17T23:32:28.976Z,13.85
2023-03-17T23:34:55.758Z,16.83
2023-03-17T23:37:22.441Z,13.85
2023-03-17T23:39:49.358Z,15.43
2023-03-17T23:42:17.341Z,13.85
2023-03-17T23:44:45.180Z,14.15
2023-03-17T23:47:12.141Z,16.35
2023-03-17T23:49:39.083Z,14.73
2023-03-17T23:52:05.958Z,14.35
2023-03-17T23:54:34.024Z,14.80
2023-03-17T23:57:01.074Z,14.43
2023-03-17T23:59:29.186Z,16.08
